Amsden, Ohio
Current Conditions -  °F | °C
As of 2:29 AM on Wednesday 22 Oct 2014 (Local Time) from KFDY Reporting Station
Overcast Overcast  
Wind Chill:   Ceiling: 1500
Heat Index:   Visibility: 10mi
Dew Point:   Wind: 7mph
Humidity: 76%   Direction: 340°NNW
Pressure: 30.19"   Gusts: NA
Location:  41.22°N, 83.33°W
Report Text: KFDY 220629Z AUTO 34006KT 10SM OVC015 07/03 A3019 RMK AO2 T00720033
Loading
Personal Weather Stations






























Interactive Weather Map
Tropical Storm Tracking
New forecast layout! Learn more

10-Day Weather Forecast

Advertisements
Track Severe Weather on mobile